sensor_id;sensor_type;location;lat;lon;timestamp;P1;durP1;ratioP1;P2;durP2;ratioP2
85523;SDS011;75932;48.616;9.270;2024-02-14T00:02:13;12.80;;;11.63;;
85523;SDS011;75932;48.616;9.270;2024-02-14T00:04:38;12.23;;;11.10;;
85523;SDS011;75932;48.616;9.270;2024-02-14T00:07:04;11.85;;;10.43;;
85523;SDS011;75932;48.616;9.270;2024-02-14T00:09:29;14.35;;;13.25;;
85523;SDS011;75932;48.616;9.270;2024-02-14T00:11:56;13.18;;;11.90;;
85523;SDS011;75932;48.616;9.270;2024-02-14T00:14:21;11.35;;;10.43;;
85523;SDS011;75932;48.616;9.270;2024-02-14T00:16:47;12.97;;;11.97;;
85523;SDS011;75932;48.616;9.270;2024-02-14T00:19:12;14.35;;;13.05;;
85523;SDS011;75932;48.616;9.270;2024-02-14T00:21:38;12.32;;;11.20;;
85523;SDS011;75932;48.616;9.270;2024-02-14T00:24:04;13.97;;;11.70;;
85523;SDS011;75932;48.616;9.270;2024-02-14T00:26:30;10.95;;;9.95;;
85523;SDS011;75932;48.616;9.270;2024-02-14T00:28:55;12.90;;;11.77;;
85523;SDS011;75932;48.616;9.270;2024-02-14T00:31:20;12.00;;;10.80;;
85523;SDS011;75932;48.616;9.270;2024-02-14T00:33:46;13.27;;;10.05;;
85523;SDS011;75932;48.616;9.270;2024-02-14T00:36:11;12.97;;;11.13;;
85523;SDS011;75932;48.616;9.270;2024-02-14T00:38:37;10.65;;;9.55;;
85523;SDS011;75932;48.616;9.270;2024-02-14T00:41:02;13.00;;;11.70;;
85523;SDS011;75932;48.616;9.270;2024-02-14T00:43:28;13.43;;;12.07;;
85523;SDS011;75932;48.616;9.270;2024-02-14T00:45:53;10.47;;;6.53;;
85523;SDS011;75932;48.616;9.270;2024-02-14T00:48:19;13.73;;;11.23;;
85523;SDS011;75932;48.616;9.270;2024-02-14T00:50:44;13.40;;;12.27;;
85523;SDS011;75932;48.616;9.270;2024-02-14T00:53:10;10.80;;;9.80;;
85523;SDS011;75932;48.616;9.270;2024-02-14T00:55:36;12.02;;;9.63;;
85523;SDS011;75932;48.616;9.270;2024-02-14T00:58:01;13.00;;;11.80;;
85523;SDS011;75932;48.616;9.270;2024-02-14T01:00:27;18.08;;;16.42;;
85523;SDS011;75932;48.616;9.270;2024-02-14T01:02:52;8.65;;;6.50;;
85523;SDS011;75932;48.616;9.270;2024-02-14T01:05:18;13.60;;;12.03;;
85523;SDS011;75932;48.616;9.270;2024-02-14T01:07:43;15.38;;;13.93;;
85523;SDS011;75932;48.616;9.270;2024-02-14T01:10:08;17.10;;;13.93;;
85523;SDS011;75932;48.616;9.270;2024-02-14T01:12:36;12.38;;;11.27;;
85523;SDS011;75932;48.616;9.270;2024-02-14T01:15:01;14.00;;;12.73;;
85523;SDS011;75932;48.616;9.270;2024-02-14T01:17:27;13.63;;;12.23;;
85523;SDS011;75932;48.616;9.270;2024-02-14T01:19:53;12.75;;;11.73;;
85523;SDS011;75932;48.616;9.270;2024-02-14T01:22:18;12.47;;;10.53;;
85523;SDS011;75932;48.616;9.270;2024-02-14T01:24:43;13.57;;;11.70;;
85523;SDS011;75932;48.616;9.270;2024-02-14T01:27:09;13.07;;;11.88;;
85523;SDS011;75932;48.616;9.270;2024-02-14T01:29:35;13.80;;;12.68;;
85523;SDS011;75932;48.616;9.270;2024-02-14T01:32:00;13.10;;;11.77;;
85523;SDS011;75932;48.616;9.270;2024-02-14T01:34:26;17.05;;;15.77;;
85523;SDS011;75932;48.616;9.270;2024-02-14T01:36:53;14.13;;;12.73;;
85523;SDS011;75932;48.616;9.270;2024-02-14T01:39:19;12.57;;;11.45;;
85523;SDS011;75932;48.616;9.270;2024-02-14T01:41:46;12.73;;;11.63;;
85523;SDS011;75932;48.616;9.270;2024-02-14T01:44:13;12.38;;;11.32;;
85523;SDS011;75932;48.616;9.270;2024-02-14T01:46:39;12.95;;;11.60;;
85523;SDS011;75932;48.616;9.270;2024-02-14T01:49:04;12.10;;;10.90;;
85523;SDS011;75932;48.616;9.270;2024-02-14T01:51:30;12.23;;;11.23;;
85523;SDS011;75932;48.616;9.270;2024-02-14T01:53:56;11.95;;;8.40;;
85523;SDS011;75932;48.616;9.270;2024-02-14T01:56:23;14.52;;;13.30;;
85523;SDS011;75932;48.616;9.270;2024-02-14T01:58:49;12.85;;;10.48;;
85523;SDS011;75932;48.616;9.270;2024-02-14T02:01:16;12.75;;;11.55;;
85523;SDS011;75932;48.616;9.270;2024-02-14T02:03:42;12.82;;;11.60;;
85523;SDS011;75932;48.616;9.270;2024-02-14T02:06:08;13.37;;;12.27;;
85523;SDS011;75932;48.616;9.270;2024-02-14T02:08:34;13.27;;;11.23;;
85523;SDS011;75932;48.616;9.270;2024-02-14T02:11:00;12.82;;;11.40;;
85523;SDS011;75932;48.616;9.270;2024-02-14T02:13:25;14.07;;;12.70;;
85523;SDS011;75932;48.616;9.270;2024-02-14T02:15:51;13.02;;;11.90;;
85523;SDS011;75932;48.616;9.270;2024-02-14T02:18:19;14.23;;;12.82;;
85523;SDS011;75932;48.616;9.270;2024-02-14T02:20:45;12.67;;;11.67;;
85523;SDS011;75932;48.616;9.270;2024-02-14T02:23:11;13.10;;;11.82;;
85523;SDS011;75932;48.616;9.270;2024-02-14T02:25:40;13.15;;;12.07;;
85523;SDS011;75932;48.616;9.270;2024-02-14T02:28:08;11.95;;;10.75;;
85523;SDS011;75932;48.616;9.270;2024-02-14T02:30:34;11.20;;;10.20;;
85523;SDS011;75932;48.616;9.270;2024-02-14T02:33:01;12.90;;;11.75;;
85523;SDS011;75932;48.616;9.270;2024-02-14T02:35:27;14.10;;;12.95;;
85523;SDS011;75932;48.616;9.270;2024-02-14T02:37:53;13.25;;;12.05;;
85523;SDS011;75932;48.616;9.270;2024-02-14T02:40:18;12.00;;;10.80;;
85523;SDS011;75932;48.616;9.270;2024-02-14T02:42:46;9.38;;;8.10;;
85523;SDS011;75932;48.616;9.270;2024-02-14T02:45:11;16.23;;;14.65;;
85523;SDS011;75932;48.616;9.270;2024-02-14T02:47:37;12.45;;;11.18;;
85523;SDS011;75932;48.616;9.270;2024-02-14T02:50:02;12.57;;;11.40;;
85523;SDS011;75932;48.616;9.270;2024-02-14T02:52:28;16.30;;;14.75;;
85523;SDS011;75932;48.616;9.270;2024-02-14T02:54:53;13.80;;;10.63;;
85523;SDS011;75932;48.616;9.270;2024-02-14T02:57:19;13.90;;;10.80;;
85523;SDS011;75932;48.616;9.270;2024-02-14T02:59:44;15.80;;;12.88;;
85523;SDS011;75932;48.616;9.270;2024-02-14T03:02:12;14.68;;;13.18;;
85523;SDS011;75932;48.616;9.270;2024-02-14T03:04:38;13.80;;;12.45;;
85523;SDS011;75932;48.616;9.270;2024-02-14T03:07:04;15.30;;;13.65;;
85523;SDS011;75932;48.616;9.270;2024-02-14T03:09:33;13.07;;;11.65;;
85523;SDS011;75932;48.616;9.270;2024-02-14T03:11:59;15.18;;;13.55;;
85523;SDS011;75932;48.616;9.270;2024-02-14T03:14:24;14.83;;;12.03;;
85523;SDS011;75932;48.616;9.270;2024-02-14T03:16:49;16.33;;;12.60;;
85523;SDS011;75932;48.616;9.270;2024-02-14T03:19:15;13.32;;;12.13;;
85523;SDS011;75932;48.616;9.270;2024-02-14T03:21:40;12.77;;;11.57;;
85523;SDS011;75932;48.616;9.270;2024-02-14T03:24:10;13.82;;;12.43;;
85523;SDS011;75932;48.616;9.270;2024-02-14T03:26:36;14.38;;;12.70;;
85523;SDS011;75932;48.616;9.270;2024-02-14T03:29:02;13.90;;;12.50;;
85523;SDS011;75932;48.616;9.270;2024-02-14T03:31:31;13.80;;;12.32;;
85523;SDS011;75932;48.616;9.270;2024-02-14T03:33:56;14.65;;;13.25;;
85523;SDS011;75932;48.616;9.270;2024-02-14T03:36:22;14.90;;;13.43;;
85523;SDS011;75932;48.616;9.270;2024-02-14T03:38:49;10.35;;;8.15;;
85523;SDS011;75932;48.616;9.270;2024-02-14T03:41:14;15.45;;;13.85;;
85523;SDS011;75932;48.616;9.270;2024-02-14T03:43:39;13.77;;;12.57;;
85523;SDS011;75932;48.616;9.270;2024-02-14T03:46:05;13.10;;;11.80;;
85523;SDS011;75932;48.616;9.270;2024-02-14T03:48:30;13.68;;;12.35;;
85523;SDS011;75932;48.616;9.270;2024-02-14T03:50:58;13.98;;;12.68;;
85523;SDS011;75932;48.616;9.270;2024-02-14T03:53:24;13.63;;;12.40;;
85523;SDS011;75932;48.616;9.270;2024-02-14T03:55:49;12.77;;;11.43;;
85523;SDS011;75932;48.616;9.270;2024-02-14T03:58:15;15.40;;;14.00;;
85523;SDS011;75932;48.616;9.270;2024-02-14T04:00:43;14.55;;;13.15;;
85523;SDS011;75932;48.616;9.270;2024-02-14T04:03:12;15.35;;;12.65;;
85523;SDS011;75932;48.616;9.270;2024-02-14T04:08:02;13.07;;;11.87;;
85523;SDS011;75932;48.616;9.270;2024-02-14T04:10:28;13.18;;;11.98;;
85523;SDS011;75932;48.616;9.270;2024-02-14T04:12:53;12.73;;;11.67;;
85523;SDS011;75932;48.616;9.270;2024-02-14T04:15:19;13.57;;;12.17;;
85523;SDS011;75932;48.616;9.270;2024-02-14T04:17:44;15.10;;;12.50;;
85523;SDS011;75932;48.616;9.270;2024-02-14T04:20:09;14.17;;;12.87;;
85523;SDS011;75932;48.616;9.270;2024-02-14T04:22:35;14.98;;;12.55;;
85523;SDS011;75932;48.616;9.270;2024-02-14T04:25:00;13.20;;;11.70;;
85523;SDS011;75932;48.616;9.270;2024-02-14T04:27:27;14.80;;;13.40;;
85523;SDS011;75932;48.616;9.270;2024-02-14T04:29:53;13.30;;;12.00;;
85523;SDS011;75932;48.616;9.270;2024-02-14T04:32:20;13.98;;;12.88;;
85523;SDS011;75932;48.616;9.270;2024-02-14T04:34:45;13.40;;;12.17;;
85523;SDS011;75932;48.616;9.270;2024-02-14T04:37:11;10.23;;;7.80;;
85523;SDS011;75932;48.616;9.270;2024-02-14T04:39:38;12.07;;;7.95;;
85523;SDS011;75932;48.616;9.270;2024-02-14T04:42:07;14.15;;;12.52;;
85523;SDS011;75932;48.616;9.270;2024-02-14T04:44:33;11.90;;;10.80;;
85523;SDS011;75932;48.616;9.270;2024-02-14T04:46:59;15.77;;;14.38;;
85523;SDS011;75932;48.616;9.270;2024-02-14T04:49:24;15.10;;;13.40;;
85523;SDS011;75932;48.616;9.270;2024-02-14T04:51:53;13.98;;;12.68;;
85523;SDS011;75932;48.616;9.270;2024-02-14T04:54:19;13.43;;;12.18;;
85523;SDS011;75932;48.616;9.270;2024-02-14T04:56:44;9.53;;;7.47;;
85523;SDS011;75932;48.616;9.270;2024-02-14T04:59:10;17.38;;;15.80;;
85523;SDS011;75932;48.616;9.270;2024-02-14T05:01:38;14.25;;;12.93;;
85523;SDS011;75932;48.616;9.270;2024-02-14T05:04:05;14.23;;;13.13;;
85523;SDS011;75932;48.616;9.270;2024-02-14T05:06:31;15.15;;;13.15;;
85523;SDS011;75932;48.616;9.270;2024-02-14T05:08:56;14.57;;;13.32;;
85523;SDS011;75932;48.616;9.270;2024-02-14T05:11:21;15.87;;;14.53;;
85523;SDS011;75932;48.616;9.270;2024-02-14T05:13:47;14.10;;;12.60;;
85523;SDS011;75932;48.616;9.270;2024-02-14T05:16:12;14.60;;;13.23;;
85523;SDS011;75932;48.616;9.270;2024-02-14T05:18:38;14.02;;;12.68;;
85523;SDS011;75932;48.616;9.270;2024-02-14T05:21:06;13.27;;;11.90;;
85523;SDS011;75932;48.616;9.270;2024-02-14T05:23:32;14.65;;;13.35;;
85523;SDS011;75932;48.616;9.270;2024-02-14T05:25:57;13.83;;;12.53;;
85523;SDS011;75932;48.616;9.270;2024-02-14T05:28:23;14.50;;;10.97;;
85523;SDS011;75932;48.616;9.270;2024-02-14T05:30:51;11.70;;;10.70;;
85523;SDS011;75932;48.616;9.270;2024-02-14T05:33:16;13.40;;;12.27;;
85523;SDS011;75932;48.616;9.270;2024-02-14T05:35:43;12.85;;;9.55;;
85523;SDS011;75932;48.616;9.270;2024-02-14T05:38:08;12.87;;;11.57;;
85523;SDS011;75932;48.616;9.270;2024-02-14T05:40:34;15.57;;;14.23;;
85523;SDS011;75932;48.616;9.270;2024-02-14T05:43:02;15.52;;;13.38;;
85523;SDS011;75932;48.616;9.270;2024-02-14T05:45:28;12.55;;;11.02;;
85523;SDS011;75932;48.616;9.270;2024-02-14T05:47:54;15.80;;;14.30;;
85523;SDS011;75932;48.616;9.270;2024-02-14T05:50:21;13.68;;;12.32;;
85523;SDS011;75932;48.616;9.270;2024-02-14T05:52:47;12.80;;;11.63;;
85523;SDS011;75932;48.616;9.270;2024-02-14T05:55:12;13.20;;;11.70;;
85523;SDS011;75932;48.616;9.270;2024-02-14T05:57:37;10.77;;;9.38;;
85523;SDS011;75932;48.616;9.270;2024-02-14T06:00:03;13.87;;;12.77;;
85523;SDS011;75932;48.616;9.270;2024-02-14T06:02:29;15.27;;;13.88;;
85523;SDS011;75932;48.616;9.270;2024-02-14T06:04:54;15.57;;;14.07;;
85523;SDS011;75932;48.616;9.270;2024-02-14T06:07:20;15.50;;;13.93;;
85523;SDS011;75932;48.616;9.270;2024-02-14T06:09:45;15.47;;;14.07;;
85523;SDS011;75932;48.616;9.270;2024-02-14T06:12:10;17.55;;;16.13;;
85523;SDS011;75932;48.616;9.270;2024-02-14T06:14:36;17.40;;;15.90;;
85523;SDS011;75932;48.616;9.270;2024-02-14T06:17:01;14.23;;;12.82;;
85523;SDS011;75932;48.616;9.270;2024-02-14T06:19:27;16.35;;;15.07;;
85523;SDS011;75932;48.616;9.270;2024-02-14T06:21:53;15.55;;;14.00;;
85523;SDS011;75932;48.616;9.270;2024-02-14T06:24:18;15.77;;;14.27;;
85523;SDS011;75932;48.616;9.270;2024-02-14T06:26:44;13.70;;;12.57;;
85523;SDS011;75932;48.616;9.270;2024-02-14T06:29:10;13.30;;;12.02;;
85523;SDS011;75932;48.616;9.270;2024-02-14T06:31:35;13.43;;;12.13;;
85523;SDS011;75932;48.616;9.270;2024-02-14T06:34:00;12.80;;;11.00;;
85523;SDS011;75932;48.616;9.270;2024-02-14T06:36:26;12.97;;;11.77;;
85523;SDS011;75932;48.616;9.270;2024-02-14T06:38:51;13.97;;;12.70;;
85523;SDS011;75932;48.616;9.270;2024-02-14T06:41:16;15.13;;;13.50;;
85523;SDS011;75932;48.616;9.270;2024-02-14T06:43:41;13.50;;;12.37;;
85523;SDS011;75932;48.616;9.270;2024-02-14T06:46:07;13.50;;;12.20;;
85523;SDS011;75932;48.616;9.270;2024-02-14T06:48:32;13.95;;;12.65;;
85523;SDS011;75932;48.616;9.270;2024-02-14T06:50:58;12.52;;;9.05;;
85523;SDS011;75932;48.616;9.270;2024-02-14T06:53:24;16.00;;;14.38;;
85523;SDS011;75932;48.616;9.270;2024-02-14T06:55:49;17.67;;;15.77;;
85523;SDS011;75932;48.616;9.270;2024-02-14T06:58:15;19.87;;;17.37;;
85523;SDS011;75932;48.616;9.270;2024-02-14T07:00:40;19.93;;;17.80;;
85523;SDS011;75932;48.616;9.270;2024-02-14T07:03:05;16.77;;;15.07;;
85523;SDS011;75932;48.616;9.270;2024-02-14T07:05:31;17.08;;;15.27;;
85523;SDS011;75932;48.616;9.270;2024-02-14T07:07:56;17.27;;;15.48;;
85523;SDS011;75932;48.616;9.270;2024-02-14T07:10:22;18.15;;;14.57;;
85523;SDS011;75932;48.616;9.270;2024-02-14T07:12:47;16.10;;;14.45;;
85523;SDS011;75932;48.616;9.270;2024-02-14T07:15:12;14.97;;;13.57;;
85523;SDS011;75932;48.616;9.270;2024-02-14T07:17:38;20.52;;;14.45;;
85523;SDS011;75932;48.616;9.270;2024-02-14T07:20:04;17.30;;;15.70;;
85523;SDS011;75932;48.616;9.270;2024-02-14T07:22:30;16.42;;;14.85;;
85523;SDS011;75932;48.616;9.270;2024-02-14T07:24:55;14.73;;;13.18;;
85523;SDS011;75932;48.616;9.270;2024-02-14T07:27:21;14.93;;;10.40;;
85523;SDS011;75932;48.616;9.270;2024-02-14T07:29:46;15.55;;;14.00;;
85523;SDS011;75932;48.616;9.270;2024-02-14T07:32:12;17.35;;;15.75;;
85523;SDS011;75932;48.616;9.270;2024-02-14T07:34:40;19.23;;;17.52;;
85523;SDS011;75932;48.616;9.270;2024-02-14T07:37:06;18.13;;;16.15;;
85523;SDS011;75932;48.616;9.270;2024-02-14T07:39:32;14.10;;;12.68;;
85523;SDS011;75932;48.616;9.270;2024-02-14T07:41:59;15.85;;;14.45;;
85523;SDS011;75932;48.616;9.270;2024-02-14T07:44:27;14.90;;;13.48;;
85523;SDS011;75932;48.616;9.270;2024-02-14T07:46:52;14.03;;;12.27;;
85523;SDS011;75932;48.616;9.270;2024-02-14T07:49:18;14.65;;;13.27;;
85523;SDS011;75932;48.616;9.270;2024-02-14T07:51:44;14.68;;;13.27;;
85523;SDS011;75932;48.616;9.270;2024-02-14T07:54:09;16.15;;;14.52;;
85523;SDS011;75932;48.616;9.270;2024-02-14T07:56:35;17.20;;;15.53;;
85523;SDS011;75932;48.616;9.270;2024-02-14T07:59:00;14.83;;;13.33;;
85523;SDS011;75932;48.616;9.270;2024-02-14T08:01:25;20.85;;;18.75;;
85523;SDS011;75932;48.616;9.270;2024-02-14T08:03:51;14.80;;;13.32;;
85523;SDS011;75932;48.616;9.270;2024-02-14T08:06:16;14.67;;;13.33;;
85523;SDS011;75932;48.616;9.270;2024-02-14T08:08:42;15.63;;;14.25;;
85523;SDS011;75932;48.616;9.270;2024-02-14T08:11:09;18.13;;;12.30;;
85523;SDS011;75932;48.616;9.270;2024-02-14T08:13:34;16.65;;;15.00;;
85523;SDS011;75932;48.616;9.270;2024-02-14T08:16:00;12.88;;;11.68;;
85523;SDS011;75932;48.616;9.270;2024-02-14T08:18:27;16.58;;;12.00;;
85523;SDS011;75932;48.616;9.270;2024-02-14T08:20:53;14.93;;;13.47;;
85523;SDS011;75932;48.616;9.270;2024-02-14T08:23:18;12.80;;;11.13;;
85523;SDS011;75932;48.616;9.270;2024-02-14T08:25:45;13.85;;;12.55;;
85523;SDS011;75932;48.616;9.270;2024-02-14T08:28:11;13.07;;;11.77;;
85523;SDS011;75932;48.616;9.270;2024-02-14T08:30:36;14.23;;;12.82;;
85523;SDS011;75932;48.616;9.270;2024-02-14T08:33:02;16.30;;;13.52;;
85523;SDS011;75932;48.616;9.270;2024-02-14T08:35:28;13.50;;;12.18;;
85523;SDS011;75932;48.616;9.270;2024-02-14T08:37:53;15.30;;;13.73;;
85523;SDS011;75932;48.616;9.270;2024-02-14T08:40:19;12.38;;;11.18;;
85523;SDS011;75932;48.616;9.270;2024-02-14T08:42:45;10.30;;;9.32;;
85523;SDS011;75932;48.616;9.270;2024-02-14T08:45:10;8.47;;;6.53;;
85523;SDS011;75932;48.616;9.270;2024-02-14T08:47:36;12.75;;;11.57;;
85523;SDS011;75932;48.616;9.270;2024-02-14T08:50:01;12.52;;;11.20;;
85523;SDS011;75932;48.616;9.270;2024-02-14T08:52:28;14.95;;;13.55;;
85523;SDS011;75932;48.616;9.270;2024-02-14T08:54:54;13.40;;;8.60;;
85523;SDS011;75932;48.616;9.270;2024-02-14T08:57:19;13.93;;;11.27;;
85523;SDS011;75932;48.616;9.270;2024-02-14T08:59:45;17.70;;;11.48;;
85523;SDS011;75932;48.616;9.270;2024-02-14T09:02:13;10.80;;;7.57;;
85523;SDS011;75932;48.616;9.270;2024-02-14T09:04:39;11.98;;;9.80;;
85523;SDS011;75932;48.616;9.270;2024-02-14T09:07:06;12.18;;;9.15;;
85523;SDS011;75932;48.616;9.270;2024-02-14T09:09:32;12.32;;;10.25;;
85523;SDS011;75932;48.616;9.270;2024-02-14T09:11:58;11.63;;;10.65;;
85523;SDS011;75932;48.616;9.270;2024-02-14T09:14:27;7.53;;;6.00;;
85523;SDS011;75932;48.616;9.270;2024-02-14T09:16:52;11.32;;;10.23;;
85523;SDS011;75932;48.616;9.270;2024-02-14T09:19:20;12.00;;;10.93;;
85523;SDS011;75932;48.616;9.270;2024-02-14T09:21:46;11.98;;;10.73;;
85523;SDS011;75932;48.616;9.270;2024-02-14T09:24:12;13.50;;;12.25;;
85523;SDS011;75932;48.616;9.270;2024-02-14T09:26:37;10.82;;;9.73;;
85523;SDS011;75932;48.616;9.270;2024-02-14T09:29:03;12.23;;;11.00;;
85523;SDS011;75932;48.616;9.270;2024-02-14T09:31:28;15.63;;;13.65;;
85523;SDS011;75932;48.616;9.270;2024-02-14T09:33:53;11.13;;;10.07;;
85523;SDS011;75932;48.616;9.270;2024-02-14T09:36:21;9.77;;;8.80;;
85523;SDS011;75932;48.616;9.270;2024-02-14T09:38:47;11.07;;;10.05;;
85523;SDS011;75932;48.616;9.270;2024-02-14T09:41:19;10.93;;;10.00;;
85523;SDS011;75932;48.616;9.270;2024-02-14T09:43:45;6.43;;;4.57;;
85523;SDS011;75932;48.616;9.270;2024-02-14T09:46:14;9.65;;;8.82;;
85523;SDS011;75932;48.616;9.270;2024-02-14T09:48:44;9.23;;;8.35;;
85523;SDS011;75932;48.616;9.270;2024-02-14T09:51:10;12.75;;;8.05;;
85523;SDS011;75932;48.616;9.270;2024-02-14T09:53:37;10.27;;;9.48;;
85523;SDS011;75932;48.616;9.270;2024-02-14T09:56:04;10.05;;;8.98;;
85523;SDS011;75932;48.616;9.270;2024-02-14T09:58:30;10.20;;;9.18;;
85523;SDS011;75932;48.616;9.270;2024-02-14T10:00:56;13.85;;;12.70;;
85523;SDS011;75932;48.616;9.270;2024-02-14T10:03:21;8.90;;;7.50;;
85523;SDS011;75932;48.616;9.270;2024-02-14T10:05:47;9.77;;;8.60;;
85523;SDS011;75932;48.616;9.270;2024-02-14T10:08:13;7.07;;;6.25;;
85523;SDS011;75932;48.616;9.270;2024-02-14T10:10:39;9.88;;;9.07;;
85523;SDS011;75932;48.616;9.270;2024-02-14T10:13:05;9.27;;;8.47;;
85523;SDS011;75932;48.616;9.270;2024-02-14T10:15:31;8.50;;;7.60;;
85523;SDS011;75932;48.616;9.270;2024-02-14T10:17:59;6.18;;;4.95;;
85523;SDS011;75932;48.616;9.270;2024-02-14T10:20:26;9.43;;;8.50;;
85523;SDS011;75932;48.616;9.270;2024-02-14T10:23:01;7.60;;;5.50;;
85523;SDS011;75932;48.616;9.270;2024-02-14T10:25:28;7.45;;;6.60;;
85523;SDS011;75932;48.616;9.270;2024-02-14T10:27:54;7.25;;;6.32;;
85523;SDS011;75932;48.616;9.270;2024-02-14T10:30:19;8.63;;;6.72;;
85523;SDS011;75932;48.616;9.270;2024-02-14T10:32:49;6.90;;;6.28;;
85523;SDS011;75932;48.616;9.270;2024-02-14T10:35:15;7.25;;;6.68;;
85523;SDS011;75932;48.616;9.270;2024-02-14T10:37:41;5.82;;;5.30;;
85523;SDS011;75932;48.616;9.270;2024-02-14T10:40:07;6.05;;;5.57;;
85523;SDS011;75932;48.616;9.270;2024-02-14T10:42:34;6.53;;;6.00;;
85523;SDS011;75932;48.616;9.270;2024-02-14T10:45:02;4.75;;;4.35;;
85523;SDS011;75932;48.616;9.270;2024-02-14T10:47:32;6.20;;;5.80;;
85523;SDS011;75932;48.616;9.270;2024-02-14T10:50:00;4.85;;;4.40;;
85523;SDS011;75932;48.616;9.270;2024-02-14T10:52:31;6.45;;;6.00;;
85523;SDS011;75932;48.616;9.270;2024-02-14T10:54:59;3.70;;;3.28;;
85523;SDS011;75932;48.616;9.270;2024-02-14T10:57:26;6.47;;;5.93;;
85523;SDS011;75932;48.616;9.270;2024-02-14T10:59:54;5.75;;;5.35;;
85523;SDS011;75932;48.616;9.270;2024-02-14T11:02:20;3.42;;;3.13;;
85523;SDS011;75932;48.616;9.270;2024-02-14T11:04:47;5.80;;;5.30;;
85523;SDS011;75932;48.616;9.270;2024-02-14T11:07:12;6.00;;;5.50;;
85523;SDS011;75932;48.616;9.270;2024-02-14T11:09:40;3.42;;;2.60;;
85523;SDS011;75932;48.616;9.270;2024-02-14T11:12:08;4.20;;;3.45;;
85523;SDS011;75932;48.616;9.270;2024-02-14T11:14:38;5.68;;;5.28;;
85523;SDS011;75932;48.616;9.270;2024-02-14T11:17:12;5.10;;;4.75;;
85523;SDS011;75932;48.616;9.270;2024-02-14T11:19:38;5.80;;;5.40;;
85523;SDS011;75932;48.616;9.270;2024-02-14T11:22:12;6.55;;;6.15;;
85523;SDS011;75932;48.616;9.270;2024-02-14T11:24:42;6.20;;;5.70;;
85523;SDS011;75932;48.616;9.270;2024-02-14T11:27:12;3.88;;;3.15;;
85523;SDS011;75932;48.616;9.270;2024-02-14T11:29:39;4.13;;;3.60;;
85523;SDS011;75932;48.616;9.270;2024-02-14T11:32:08;3.83;;;2.83;;
85523;SDS011;75932;48.616;9.270;2024-02-14T11:34:36;4.45;;;3.72;;
85523;SDS011;75932;48.616;9.270;2024-02-14T11:37:02;4.90;;;4.47;;
85523;SDS011;75932;48.616;9.270;2024-02-14T11:39:27;4.97;;;4.60;;
85523;SDS011;75932;48.616;9.270;2024-02-14T11:41:53;4.03;;;3.25;;
85523;SDS011;75932;48.616;9.270;2024-02-14T11:44:19;4.87;;;4.47;;
85523;SDS011;75932;48.616;9.270;2024-02-14T11:46:47;3.55;;;3.25;;
85523;SDS011;75932;48.616;9.270;2024-02-14T11:51:41;3.75;;;2.88;;
85523;SDS011;75932;48.616;9.270;2024-02-14T11:54:07;3.53;;;3.22;;
85523;SDS011;75932;48.616;9.270;2024-02-14T11:56:36;3.22;;;2.50;;
85523;SDS011;75932;48.616;9.270;2024-02-14T11:59:03;4.90;;;4.53;;
85523;SDS011;75932;48.616;9.270;2024-02-14T12:01:33;3.25;;;3.03;;
85523;SDS011;75932;48.616;9.270;2024-02-14T12:04:00;3.08;;;2.78;;
85523;SDS011;75932;48.616;9.270;2024-02-14T12:06:33;4.22;;;3.92;;
85523;SDS011;75932;48.616;9.270;2024-02-14T12:09:00;3.80;;;2.53;;
85523;SDS011;75932;48.616;9.270;2024-02-14T12:11:30;3.60;;;3.30;;
85523;SDS011;75932;48.616;9.270;2024-02-14T12:13:57;3.45;;;3.17;;
85523;SDS011;75932;48.616;9.270;2024-02-14T12:16:26;2.13;;;1.92;;
85523;SDS011;75932;48.616;9.270;2024-02-14T12:19:00;2.87;;;2.67;;
85523;SDS011;75932;48.616;9.270;2024-02-14T12:21:37;2.63;;;2.22;;
85523;SDS011;75932;48.616;9.270;2024-02-14T12:24:07;3.30;;;3.00;;
85523;SDS011;75932;48.616;9.270;2024-02-14T12:26:37;3.47;;;2.83;;
85523;SDS011;75932;48.616;9.270;2024-02-14T12:29:05;3.53;;;3.33;;
85523;SDS011;75932;48.616;9.270;2024-02-14T12:31:35;2.60;;;2.40;;
85523;SDS011;75932;48.616;9.270;2024-02-14T12:34:02;2.85;;;2.60;;
85523;SDS011;75932;48.616;9.270;2024-02-14T12:36:29;3.88;;;3.58;;
85523;SDS011;75932;48.616;9.270;2024-02-14T12:38:55;2.88;;;2.67;;
85523;SDS011;75932;48.616;9.270;2024-02-14T12:41:21;2.28;;;1.70;;
85523;SDS011;75932;48.616;9.270;2024-02-14T12:43:48;3.20;;;2.67;;
85523;SDS011;75932;48.616;9.270;2024-02-14T12:46:14;3.08;;;2.88;;
85523;SDS011;75932;48.616;9.270;2024-02-14T12:48:39;2.00;;;1.80;;
85523;SDS011;75932;48.616;9.270;2024-02-14T12:51:04;3.53;;;3.23;;
85523;SDS011;75932;48.616;9.270;2024-02-14T12:53:30;2.22;;;2.03;;
85523;SDS011;75932;48.616;9.270;2024-02-14T12:55:55;2.27;;;2.13;;
85523;SDS011;75932;48.616;9.270;2024-02-14T12:58:21;2.00;;;1.80;;
85523;SDS011;75932;48.616;9.270;2024-02-14T13:00:46;2.38;;;2.10;;
85523;SDS011;75932;48.616;9.270;2024-02-14T13:03:12;3.55;;;3.35;;
85523;SDS011;75932;48.616;9.270;2024-02-14T13:05:38;2.73;;;2.53;;
85523;SDS011;75932;48.616;9.270;2024-02-14T13:08:04;2.88;;;2.60;;
85523;SDS011;75932;48.616;9.270;2024-02-14T13:10:30;2.78;;;2.50;;
85523;SDS011;75932;48.616;9.270;2024-02-14T13:12:56;2.13;;;1.92;;
85523;SDS011;75932;48.616;9.270;2024-02-14T13:15:22;3.10;;;2.55;;
85523;SDS011;75932;48.616;9.270;2024-02-14T13:17:47;2.72;;;2.47;;
85523;SDS011;75932;48.616;9.270;2024-02-14T13:20:13;3.15;;;2.15;;
85523;SDS011;75932;48.616;9.270;2024-02-14T13:22:40;3.80;;;3.40;;
85523;SDS011;75932;48.616;9.270;2024-02-14T13:25:06;4.18;;;3.88;;
85523;SDS011;75932;48.616;9.270;2024-02-14T13:27:31;2.63;;;2.42;;
85523;SDS011;75932;48.616;9.270;2024-02-14T13:29:58;4.95;;;4.65;;
85523;SDS011;75932;48.616;9.270;2024-02-14T13:32:24;4.00;;;3.75;;
85523;SDS011;75932;48.616;9.270;2024-02-14T13:34:49;3.45;;;3.22;;
85523;SDS011;75932;48.616;9.270;2024-02-14T13:37:15;4.53;;;2.67;;
85523;SDS011;75932;48.616;9.270;2024-02-14T13:39:40;3.17;;;2.88;;
85523;SDS011;75932;48.616;9.270;2024-02-14T13:42:06;3.42;;;3.03;;
85523;SDS011;75932;48.616;9.270;2024-02-14T13:44:32;3.17;;;2.85;;
85523;SDS011;75932;48.616;9.270;2024-02-14T13:46:58;4.97;;;4.57;;
85523;SDS011;75932;48.616;9.270;2024-02-14T13:49:24;4.85;;;4.55;;
85523;SDS011;75932;48.616;9.270;2024-02-14T13:51:50;4.10;;;3.85;;
85523;SDS011;75932;48.616;9.270;2024-02-14T13:54:19;5.97;;;5.57;;
85523;SDS011;75932;48.616;9.270;2024-02-14T13:56:45;2.55;;;2.35;;
85523;SDS011;75932;48.616;9.270;2024-02-14T13:59:14;4.30;;;4.00;;
85523;SDS011;75932;48.616;9.270;2024-02-14T14:01:40;4.78;;;3.00;;
85523;SDS011;75932;48.616;9.270;2024-02-14T14:04:06;3.35;;;2.85;;
85523;SDS011;75932;48.616;9.270;2024-02-14T14:06:31;2.00;;;1.52;;
85523;SDS011;75932;48.616;9.270;2024-02-14T14:08:56;2.70;;;2.07;;
85523;SDS011;75932;48.616;9.270;2024-02-14T14:11:22;3.00;;;2.80;;
85523;SDS011;75932;48.616;9.270;2024-02-14T14:13:48;2.38;;;2.17;;
85523;SDS011;75932;48.616;9.270;2024-02-14T14:16:14;2.63;;;2.42;;
85523;SDS011;75932;48.616;9.270;2024-02-14T14:18:40;3.20;;;2.95;;
85523;SDS011;75932;48.616;9.270;2024-02-14T14:21:05;3.07;;;2.30;;
85523;SDS011;75932;48.616;9.270;2024-02-14T14:23:31;2.65;;;2.05;;
85523;SDS011;75932;48.616;9.270;2024-02-14T14:25:57;3.60;;;3.30;;
85523;SDS011;75932;48.616;9.270;2024-02-14T14:28:23;4.80;;;3.92;;
85523;SDS011;75932;48.616;9.270;2024-02-14T14:30:58;2.30;;;2.10;;